createdAt,value
2022-10-23T00:01:41.950Z,69.89
2022-10-23T00:04:12.967Z,70.22
2022-10-23T00:06:39.880Z,70.46
2022-10-23T00:09:08.694Z,69.87
2022-10-23T00:11:35.928Z,69.52
2022-10-23T00:14:05.635Z,70.26
2022-10-23T00:16:32.285Z,70.55
2022-10-23T00:18:59.201Z,70.92
2022-10-23T00:21:26.311Z,71.50
2022-10-23T00:23:52.960Z,71.27
2022-10-23T00:26:20.402Z,71.43
2022-10-23T00:28:51.434Z,70.61
2022-10-23T00:31:18.736Z,70.60
2022-10-23T00:33:46.486Z,71.27
2022-10-23T00:36:15.770Z,70.31
2022-10-23T00:38:42.605Z,70.19
2022-10-23T00:41:14.172Z,69.83
2022-10-23T00:44:03.942Z,69.64
2022-10-23T00:46:31.158Z,70.53
2022-10-23T00:48:58.624Z,70.53
2022-10-23T00:51:29.490Z,69.96
2022-10-23T00:54:06.508Z,69.76
2022-10-23T00:56:46.398Z,70.19
2022-10-23T00:59:13.395Z,69.71
2022-10-23T01:01:41.012Z,69.50
2022-10-23T01:04:10.483Z,70.13
2022-10-23T01:06:45.337Z,70.04
2022-10-23T01:09:21.184Z,69.75
2022-10-23T01:11:56.445Z,69.25
2022-10-23T01:15:08.703Z,69.27
2022-10-23T01:17:40.996Z,69.37
2022-10-23T01:20:33.058Z,69.16
2022-10-23T01:23:22.450Z,69.47
2022-10-23T01:26:22.875Z,69.19
2022-10-23T01:28:56.332Z,69.02
2022-10-23T01:31:51.364Z,69.09
2022-10-23T01:34:28.559Z,69.54
2022-10-23T01:36:57.223Z,69.41
2022-10-23T01:39:37.521Z,69.06
2022-10-23T01:42:10.855Z,68.94
2022-10-23T01:44:49.639Z,68.95
2022-10-23T01:49:50.938Z,69.53
2022-10-23T01:52:18.907Z,69.26
2022-10-23T01:54:47.683Z,69.38
2022-10-23T01:57:18.662Z,69.32
2022-10-23T01:59:51.270Z,69.33
2022-10-23T02:02:20.725Z,70.31
2022-10-23T02:05:15.915Z,70.55
2022-10-23T02:07:43.652Z,69.97
2022-10-23T02:10:11.381Z,69.72
2022-10-23T02:12:43.918Z,69.57
2022-10-23T02:15:21.546Z,69.28
2022-10-23T02:18:25.527Z,68.73
2022-10-23T02:20:55.953Z,68.33
2022-10-23T02:23:28.628Z,68.46
2022-10-23T02:26:11.920Z,68.92
2022-10-23T02:28:52.088Z,69.00
2022-10-23T02:31:22.635Z,69.10
2022-10-23T02:33:49.460Z,68.61
2022-10-23T02:36:16.492Z,69.19
2022-10-23T02:38:44.817Z,69.19
2022-10-23T02:41:29.965Z,68.60
2022-10-23T02:44:10.651Z,68.38
2022-10-23T02:46:52.639Z,68.50
2022-10-23T02:49:26.221Z,69.28
2022-10-23T02:52:14.924Z,69.35
2022-10-23T02:54:50.221Z,68.71
2022-10-23T02:57:19.942Z,68.69
2022-10-23T03:00:07.756Z,68.80
2022-10-23T03:02:52.408Z,68.82
2022-10-23T03:05:23.968Z,68.52
2022-10-23T03:07:51.876Z,68.85
2022-10-23T03:10:18.840Z,68.94
2022-10-23T03:12:47.154Z,68.89
2022-10-23T03:15:13.750Z,68.86
2022-10-23T03:17:41.353Z,68.94
2022-10-23T03:20:09.287Z,69.44
2022-10-23T03:22:36.228Z,69.83
2022-10-23T03:25:03.079Z,69.78
2022-10-23T03:30:01.359Z,69.10
2022-10-23T03:32:28.019Z,69.30
2022-10-23T03:34:54.590Z,68.91
2022-10-23T03:37:21.261Z,68.96
2022-10-23T03:39:47.866Z,69.29
2022-10-23T03:42:14.583Z,69.51
2022-10-23T03:44:41.163Z,69.91
2022-10-23T03:47:09.911Z,69.61
2022-10-23T03:49:36.760Z,69.62
2022-10-23T03:52:03.767Z,69.79
2022-10-23T03:54:30.399Z,70.06
2022-10-23T03:56:57.840Z,70.52
2022-10-23T03:59:24.759Z,70.53
2022-10-23T04:01:51.921Z,70.27
2022-10-23T04:04:18.855Z,69.61
2022-10-23T04:06:45.504Z,69.83
2022-10-23T04:11:39.732Z,69.55
2022-10-23T04:14:06.366Z,69.29
2022-10-23T04:16:32.996Z,69.59
2022-10-23T04:18:59.624Z,69.40
2022-10-23T04:21:26.233Z,69.60
2022-10-23T04:23:52.851Z,69.68
2022-10-23T04:26:19.510Z,69.94
2022-10-23T04:28:46.104Z,69.85
2022-10-23T04:31:13.013Z,69.96
2022-10-23T04:33:39.579Z,69.95
2022-10-23T04:36:06.587Z,69.94
2022-10-23T04:38:33.214Z,70.33
2022-10-23T04:40:59.783Z,70.11
2022-10-23T04:43:26.386Z,70.12
2022-10-23T04:45:52.997Z,71.39
2022-10-23T04:48:19.638Z,71.20
2022-10-23T04:50:57.806Z,70.92
2022-10-23T04:53:24.932Z,71.22
2022-10-23T04:55:52.934Z,70.99
2022-10-23T04:58:19.826Z,70.86
2022-10-23T05:00:47.403Z,71.34
2022-10-23T05:03:15.319Z,71.10
2022-10-23T05:05:42.728Z,70.98
2022-10-23T05:08:12.259Z,70.89
2022-10-23T05:10:41.772Z,71.04
2022-10-23T05:13:08.351Z,71.95
2022-10-23T05:15:35.180Z,72.63
2022-10-23T05:18:12.053Z,71.65
2022-10-23T05:20:39.944Z,71.12
2022-10-23T05:23:10.020Z,71.09
2022-10-23T05:25:37.242Z,71.03
2022-10-23T05:28:04.108Z,71.01
2022-10-23T05:30:33.131Z,71.51
2022-10-23T05:33:01.651Z,71.16
2022-10-23T05:35:29.892Z,70.85
2022-10-23T05:37:59.016Z,70.88
2022-10-23T05:40:25.992Z,70.96
2022-10-23T05:42:52.659Z,70.69
2022-10-23T05:45:19.669Z,70.98
2022-10-23T05:47:47.281Z,70.45
2022-10-23T05:50:13.885Z,71.28
2022-10-23T05:52:40.639Z,71.14
2022-10-23T05:55:07.658Z,70.83
2022-10-23T05:57:34.373Z,70.95
2022-10-23T06:00:01.003Z,70.73
2022-10-23T06:02:27.931Z,70.54
2022-10-23T06:04:54.619Z,70.52
2022-10-23T06:07:30.090Z,70.50
2022-10-23T06:09:59.154Z,70.75
2022-10-23T06:12:25.734Z,70.66
2022-10-23T06:14:52.354Z,70.62
2022-10-23T06:17:19.012Z,71.19
2022-10-23T06:19:46.273Z,71.75
2022-10-23T06:22:13.349Z,70.93
2022-10-23T06:24:39.990Z,70.87
2022-10-23T06:27:06.616Z,71.01
2022-10-23T06:29:33.233Z,70.97
2022-10-23T06:31:59.839Z,70.92
2022-10-23T06:34:26.439Z,70.64
2022-10-23T06:36:53.045Z,70.66
2022-10-23T06:39:21.300Z,71.11
2022-10-23T06:41:48.010Z,70.98
2022-10-23T06:44:14.614Z,70.60
2022-10-23T06:46:41.276Z,70.96
2022-10-23T06:49:07.971Z,71.79
2022-10-23T06:51:34.584Z,71.51
2022-10-23T06:54:01.232Z,71.44
2022-10-23T06:56:29.359Z,71.12
2022-10-23T06:58:56.661Z,72.04
2022-10-23T07:01:23.481Z,72.01
2022-10-23T07:03:50.106Z,71.56
2022-10-23T07:06:16.722Z,71.22
2022-10-23T07:08:43.296Z,71.27
2022-10-23T07:11:11.801Z,71.78
2022-10-23T07:13:39.565Z,72.00
2022-10-23T07:16:17.964Z,71.75
2022-10-23T07:18:45.294Z,71.44
2022-10-23T07:21:11.943Z,72.16
2022-10-23T07:23:38.611Z,72.61
2022-10-23T07:26:16.228Z,72.16
2022-10-23T07:28:45.171Z,72.83
2022-10-23T07:31:12.982Z,72.98
2022-10-23T07:33:39.815Z,72.60
2022-10-23T07:36:08.075Z,72.54
2022-10-23T07:38:34.766Z,73.03
2022-10-23T07:41:01.711Z,75.75
2022-10-23T07:43:28.584Z,75.85
2022-10-23T07:45:55.628Z,76.15
2022-10-23T07:48:23.935Z,76.87
2022-10-23T07:50:51.381Z,75.56
2022-10-23T07:53:20.611Z,75.43
2022-10-23T07:55:58.990Z,74.52
2022-10-23T07:58:27.068Z,74.57
2022-10-23T08:01:02.572Z,74.68
2022-10-23T08:03:32.156Z,74.05
2022-10-23T08:05:59.522Z,73.73
2022-10-23T08:08:26.806Z,74.21
2022-10-23T08:10:55.080Z,73.84
2022-10-23T08:13:22.503Z,73.34
2022-10-23T08:15:51.398Z,73.74
2022-10-23T08:18:18.231Z,74.20
2022-10-23T08:20:47.186Z,74.18
2022-10-23T08:23:17.030Z,74.80
2022-10-23T08:25:44.084Z,75.53
2022-10-23T08:28:10.860Z,75.97
2022-10-23T08:30:37.835Z,76.39
2022-10-23T08:33:07.787Z,74.83
2022-10-23T08:35:38.701Z,75.09
2022-10-23T08:38:06.414Z,74.69
2022-10-23T08:40:35.039Z,74.50
2022-10-23T08:43:12.677Z,76.42
2022-10-23T08:46:00.175Z,77.78
2022-10-23T08:48:53.305Z,76.38
2022-10-23T08:51:30.026Z,77.80
2022-10-23T08:54:03.047Z,77.32
2022-10-23T08:56:39.229Z,76.29
2022-10-23T08:59:28.309Z,75.88
2022-10-23T09:01:54.902Z,76.61
2022-10-23T09:04:21.623Z,76.18
2022-10-23T09:07:20.631Z,75.77
2022-10-23T09:10:23.565Z,75.53
2022-10-23T09:12:50.367Z,75.78
2022-10-23T09:15:28.435Z,74.62
2022-10-23T09:17:59.903Z,75.22
2022-10-23T09:20:35.658Z,74.67
2022-10-23T09:23:19.452Z,72.77
2022-10-23T09:25:47.967Z,73.48
2022-10-23T09:28:27.439Z,73.75
2022-10-23T09:30:54.156Z,71.10
2022-10-23T09:33:30.908Z,72.04
2022-10-23T09:36:00.640Z,72.35
2022-10-23T09:38:46.859Z,71.11
2022-10-23T09:41:16.055Z,68.70
2022-10-23T09:43:43.280Z,69.26
2022-10-23T09:46:11.944Z,69.94
2022-10-23T09:48:40.078Z,67.03
2022-10-23T09:51:19.715Z,68.03
2022-10-23T09:53:53.830Z,68.50
2022-10-23T09:56:24.815Z,65.84
2022-10-23T09:59:14.888Z,66.64
2022-10-23T10:01:54.262Z,63.08
2022-10-23T10:04:34.124Z,61.22
2022-10-23T10:07:03.059Z,62.01
2022-10-23T10:09:29.832Z,61.74
2022-10-23T10:12:19.192Z,61.78
2022-10-23T10:14:55.295Z,60.09
2022-10-23T10:17:35.150Z,58.46
2022-10-23T10:20:06.965Z,59.26
2022-10-23T10:22:49.088Z,58.80
2022-10-23T10:25:24.159Z,57.89
2022-10-23T10:27:53.745Z,57.95
2022-10-23T10:30:24.466Z,57.12
2022-10-23T10:32:59.706Z,57.53
2022-10-23T10:35:40.711Z,57.32
2022-10-23T10:38:35.103Z,53.69
2022-10-23T10:41:10.725Z,56.35
2022-10-23T10:43:40.526Z,56.73
2022-10-23T10:46:33.162Z,55.24
2022-10-23T10:49:01.947Z,55.43
2022-10-23T10:52:01.358Z,56.78
2022-10-23T10:54:48.378Z,56.08
2022-10-23T10:57:31.545Z,54.79
2022-10-23T11:00:01.391Z,55.81
2022-10-23T11:02:34.942Z,55.75
2022-10-23T11:05:19.906Z,55.24
2022-10-23T11:08:14.554Z,53.21
2022-10-23T11:10:50.414Z,53.18
2022-10-23T11:13:28.683Z,52.19
2022-10-23T11:16:00.651Z,53.10
2022-10-23T11:18:30.827Z,51.92
2022-10-23T11:21:22.723Z,51.91
2022-10-23T11:24:07.369Z,52.65
2022-10-23T11:27:18.926Z,52.50
2022-10-23T11:30:08.446Z,52.92
2022-10-23T11:32:53.078Z,50.66
2022-10-23T11:35:31.829Z,51.46
2022-10-23T11:38:08.486Z,49.51
2022-10-23T11:40:35.260Z,46.34
2022-10-23T11:43:01.879Z,47.41
2022-10-23T11:45:37.488Z,43.27
2022-10-23T11:48:22.741Z,46.17
2022-10-23T11:50:51.950Z,46.03
2022-10-23T11:53:47.758Z,45.94
2022-10-23T11:56:14.706Z,46.05
2022-10-23T11:58:48.171Z,43.00
2022-10-23T12:01:36.522Z,42.69
2022-10-23T12:04:18.082Z,41.61
2022-10-23T12:06:48.643Z,40.69
2022-10-23T12:09:33.587Z,41.00
2022-10-23T12:12:08.992Z,42.64
2022-10-23T12:14:48.126Z,43.39
2022-10-23T12:17:36.842Z,41.41
2022-10-23T12:20:12.461Z,41.77
2022-10-23T12:23:03.026Z,42.69
2022-10-23T12:26:03.278Z,43.45
2022-10-23T12:28:46.257Z,43.47
2022-10-23T12:31:45.629Z,43.04
2022-10-23T12:34:23.238Z,42.66
2022-10-23T12:37:11.500Z,42.09
2022-10-23T12:39:39.209Z,43.82
2022-10-23T12:42:15.894Z,43.65
2022-10-23T12:44:42.802Z,45.58
2022-10-23T12:47:18.818Z,46.41
2022-10-23T12:49:50.040Z,46.78
2022-10-23T12:52:18.978Z,46.91
2022-10-23T12:54:45.577Z,48.73
2022-10-23T12:57:26.734Z,49.13
2022-10-23T12:59:57.934Z,51.68
2022-10-23T13:02:30.349Z,52.14
2022-10-23T13:05:02.077Z,53.20
2022-10-23T13:07:31.757Z,53.55
2022-10-23T13:09:59.072Z,53.68
2022-10-23T13:12:32.007Z,51.83
2022-10-23T13:15:07.293Z,51.72
2022-10-23T13:17:46.968Z,51.71
2022-10-23T13:20:28.689Z,51.01
2022-10-23T13:23:02.096Z,51.09
2022-10-23T13:25:34.275Z,51.40
2022-10-23T13:28:22.136Z,50.15
2022-10-23T13:31:07.675Z,50.05
2022-10-23T13:33:40.367Z,49.83
2022-10-23T13:36:22.272Z,49.69
2022-10-23T13:39:04.667Z,49.25
2022-10-23T13:41:38.206Z,48.57
2022-10-23T13:44:04.965Z,48.79
2022-10-23T13:46:31.959Z,47.93
2022-10-23T13:48:58.555Z,49.12
2022-10-23T13:51:28.528Z,47.71
2022-10-23T13:53:56.436Z,47.82
2022-10-23T13:56:26.734Z,48.32
2022-10-23T13:58:53.828Z,48.07
2022-10-23T14:01:23.525Z,48.50
2022-10-23T14:03:51.327Z,48.63
2022-10-23T14:06:18.194Z,48.46
2022-10-23T14:08:44.839Z,47.98
2022-10-23T14:13:45.143Z,48.46
2022-10-23T14:16:16.579Z,47.89
2022-10-23T14:18:43.398Z,48.23
2022-10-23T14:21:13.163Z,48.53
2022-10-23T14:23:39.948Z,48.32
2022-10-23T14:26:09.511Z,49.12
2022-10-23T14:28:36.556Z,49.48
2022-10-23T14:31:10.731Z,49.11
2022-10-23T14:33:38.621Z,48.78
2022-10-23T14:36:05.771Z,48.58
2022-10-23T14:38:32.536Z,50.01
2022-10-23T14:40:59.236Z,48.74
2022-10-23T14:43:26.103Z,48.28
2022-10-23T14:45:52.734Z,49.19
2022-10-23T14:48:19.790Z,49.00
2022-10-23T14:50:49.372Z,49.98
2022-10-23T14:53:16.399Z,50.57
2022-10-23T14:55:43.055Z,49.96
2022-10-23T14:58:09.740Z,49.75
2022-10-23T15:00:36.344Z,49.39
2022-10-23T15:03:03.140Z,50.18
2022-10-23T15:05:29.795Z,50.73
2022-10-23T15:07:58.541Z,50.18
2022-10-23T15:10:25.199Z,49.84
2022-10-23T15:12:51.855Z,49.99
2022-10-23T15:15:18.503Z,49.73
2022-10-23T15:17:45.127Z,49.78
2022-10-23T15:20:11.768Z,49.17
2022-10-23T15:22:38.417Z,49.33
2022-10-23T15:25:05.547Z,49.19
2022-10-23T15:27:32.172Z,49.32
2022-10-23T15:29:58.769Z,49.19
2022-10-23T15:32:25.365Z,49.27
2022-10-23T15:34:53.747Z,49.29
2022-10-23T15:37:20.347Z,49.52
2022-10-23T15:39:46.988Z,49.56
2022-10-23T15:42:13.730Z,49.44
2022-10-23T15:44:41.260Z,49.89
2022-10-23T15:47:07.905Z,49.87
2022-10-23T15:49:35.006Z,49.74
2022-10-23T15:52:02.663Z,49.86
2022-10-23T15:54:32.036Z,49.79
2022-10-23T15:57:00.163Z,49.88
2022-10-23T15:59:28.407Z,50.01
2022-10-23T16:01:55.794Z,50.18
2022-10-23T16:04:22.786Z,49.96
2022-10-23T16:06:49.741Z,49.94
2022-10-23T16:09:17.351Z,50.46
2022-10-23T16:11:44.261Z,50.19
2022-10-23T16:14:14.073Z,50.42
2022-10-23T16:16:40.795Z,50.37
2022-10-23T16:19:07.675Z,50.53
2022-10-23T16:21:36.374Z,50.71
2022-10-23T16:24:04.916Z,50.67
2022-10-23T16:26:32.362Z,51.13
2022-10-23T16:29:01.751Z,51.41
2022-10-23T16:31:29.802Z,51.27
2022-10-23T16:34:01.482Z,51.24
2022-10-23T16:36:28.995Z,51.67
2022-10-23T16:38:55.836Z,51.54
2022-10-23T16:41:22.467Z,51.64
2022-10-23T16:43:49.148Z,51.86
2022-10-23T16:46:18.447Z,52.17
2022-10-23T16:48:45.635Z,52.07
2022-10-23T16:51:18.143Z,52.63
2022-10-23T16:53:45.743Z,52.72
2022-10-23T16:56:15.353Z,52.48
2022-10-23T16:58:42.861Z,52.96
2022-10-23T17:01:12.335Z,52.86
2022-10-23T17:03:43.850Z,52.87
2022-10-23T17:06:13.233Z,53.13
2022-10-23T17:08:40.785Z,53.60
2022-10-23T17:11:16.384Z,53.52
2022-10-23T17:13:46.237Z,53.72
2022-10-23T17:16:20.646Z,54.61
2022-10-23T17:18:47.896Z,53.75
2022-10-23T17:21:16.460Z,53.66
2022-10-23T17:23:43.860Z,53.24
2022-10-23T17:26:12.886Z,54.12
2022-10-23T17:28:42.340Z,53.30
2022-10-23T17:31:15.071Z,53.58
2022-10-23T17:33:42.312Z,53.68
2022-10-23T17:36:10.326Z,53.58
2022-10-23T17:38:38.937Z,54.42
2022-10-23T17:41:07.716Z,54.91
2022-10-23T17:43:35.515Z,55.17
2022-10-23T17:46:06.806Z,54.84
2022-10-23T17:48:34.350Z,54.36
2022-10-23T17:51:06.763Z,54.94
2022-10-23T17:53:35.335Z,55.59
2022-10-23T17:56:04.111Z,55.00
2022-10-23T17:58:31.479Z,55.54
2022-10-23T18:01:03.741Z,55.64
2022-10-23T18:03:30.454Z,55.91
2022-10-23T18:05:57.042Z,55.92
2022-10-23T18:08:24.415Z,55.92
2022-10-23T18:10:50.992Z,56.11
2022-10-23T18:13:17.579Z,55.80
2022-10-23T18:15:44.188Z,55.85
2022-10-23T18:18:10.796Z,55.98
2022-10-23T18:20:41.022Z,57.31
2022-10-23T18:23:08.077Z,57.16
2022-10-23T18:25:35.058Z,57.12
2022-10-23T18:28:02.636Z,56.98
2022-10-23T18:30:29.487Z,57.08
2022-10-23T18:32:58.189Z,57.35
2022-10-23T18:35:25.355Z,58.41
2022-10-23T18:37:52.021Z,58.52
2022-10-23T18:40:19.442Z,58.53
2022-10-23T18:42:47.742Z,57.65
2022-10-23T18:45:14.426Z,57.76
2022-10-23T18:47:41.164Z,57.88
2022-10-23T18:50:08.413Z,58.17
2022-10-23T18:52:35.011Z,58.21
2022-10-23T18:55:01.725Z,58.02
2022-10-23T18:57:28.315Z,57.83
2022-10-23T18:59:58.310Z,57.43
2022-10-23T19:02:24.994Z,57.45
2022-10-23T19:04:51.680Z,57.35
2022-10-23T19:07:18.435Z,57.63
2022-10-23T19:09:45.138Z,59.03
2022-10-23T19:12:11.897Z,58.23
2022-10-23T19:14:39.162Z,58.61
2022-10-23T19:17:29.878Z,57.86
2022-10-23T19:20:16.584Z,58.26
2022-10-23T19:22:46.601Z,57.99
2022-10-23T19:25:26.890Z,58.49
2022-10-23T19:27:55.570Z,58.98
2022-10-23T19:30:23.045Z,58.54
2022-10-23T19:32:50.652Z,58.10
2022-10-23T19:35:20.022Z,57.70
2022-10-23T19:37:47.560Z,58.55
2022-10-23T19:40:15.387Z,58.69
2022-10-23T19:42:43.113Z,58.45
2022-10-23T19:45:13.565Z,58.62
2022-10-23T19:47:41.053Z,58.56
2022-10-23T19:50:10.027Z,58.76
2022-10-23T19:52:37.133Z,58.83
2022-10-23T19:55:05.976Z,59.02
2022-10-23T19:57:35.624Z,59.14
2022-10-23T20:00:02.447Z,59.74
2022-10-23T20:02:29.207Z,59.07
2022-10-23T20:04:56.047Z,59.26
2022-10-23T20:07:22.669Z,60.33
2022-10-23T20:09:49.291Z,60.10
2022-10-23T20:12:15.979Z,59.81
2022-10-23T20:14:42.631Z,59.70
2022-10-23T20:17:09.231Z,60.04
2022-10-23T20:19:35.839Z,59.54
2022-10-23T20:22:02.544Z,59.57
2022-10-23T20:24:29.192Z,60.08
2022-10-23T20:26:56.062Z,61.08
2022-10-23T20:29:23.348Z,60.52
2022-10-23T20:31:50.011Z,61.63
2022-10-23T20:34:17.063Z,60.69
2022-10-23T20:36:47.002Z,60.43
2022-10-23T20:39:29.632Z,60.01
2022-10-23T20:41:56.717Z,60.59
2022-10-23T20:44:24.117Z,60.26
2022-10-23T20:46:51.353Z,60.89
2022-10-23T20:49:19.194Z,61.04
2022-10-23T20:51:46.002Z,61.25
2022-10-23T20:54:12.600Z,60.39
2022-10-23T20:56:39.629Z,60.60
2022-10-23T20:59:10.606Z,60.52
2022-10-23T21:01:40.967Z,60.19
2022-10-23T21:04:08.382Z,60.69
2022-10-23T21:06:46.278Z,59.98
2022-10-23T21:09:21.754Z,60.21
2022-10-23T21:11:48.384Z,60.47
2022-10-23T21:14:15.010Z,60.70
2022-10-23T21:16:44.365Z,60.92
2022-10-23T21:19:14.350Z,63.08
2022-10-23T21:21:40.993Z,62.00
2022-10-23T21:24:10.437Z,61.83
2022-10-23T21:26:37.131Z,62.65
2022-10-23T21:29:17.873Z,62.80
2022-10-23T21:31:45.632Z,62.98
2022-10-23T21:34:12.346Z,62.89
2022-10-23T21:36:53.826Z,62.69
2022-10-23T21:39:25.750Z,62.51
2022-10-23T21:41:52.330Z,62.89
2022-10-23T21:44:18.974Z,62.83
2022-10-23T21:46:45.776Z,62.53
2022-10-23T21:49:12.927Z,63.06
2022-10-23T21:51:40.016Z,63.39
2022-10-23T21:54:10.334Z,63.36
2022-10-23T21:56:42.521Z,63.51
2022-10-23T21:59:13.412Z,62.95
2022-10-23T22:01:43.169Z,62.89
2022-10-23T22:04:11.951Z,63.31
2022-10-23T22:06:38.971Z,62.99
2022-10-23T22:09:06.423Z,63.01
2022-10-23T22:11:33.620Z,63.10
2022-10-23T22:14:00.753Z,62.46
2022-10-23T22:16:27.822Z,62.30
2022-10-23T22:18:54.527Z,63.23
2022-10-23T22:21:25.251Z,64.08
2022-10-23T22:23:54.877Z,65.40
2022-10-23T22:26:32.107Z,64.79
2022-10-23T22:29:01.093Z,64.27
2022-10-23T22:31:30.093Z,63.95
2022-10-23T22:33:57.809Z,63.42
2022-10-23T22:36:25.149Z,63.01
2022-10-23T22:38:52.526Z,62.94
2022-10-23T22:41:20.070Z,63.06
2022-10-23T22:43:46.767Z,63.36
2022-10-23T22:46:19.109Z,63.32
2022-10-23T22:48:46.162Z,63.99
2022-10-23T22:51:14.806Z,64.46
2022-10-23T22:53:42.189Z,65.95
2022-10-23T22:56:11.224Z,66.66
2022-10-23T22:58:37.948Z,65.63
2022-10-23T23:01:24.835Z,65.43
2022-10-23T23:03:52.271Z,67.03
2022-10-23T23:06:19.814Z,69.74
2022-10-23T23:08:47.205Z,69.19
2022-10-23T23:11:16.195Z,66.89
2022-10-23T23:13:43.304Z,65.86
2022-10-23T23:16:24.407Z,65.02
2022-10-23T23:18:51.924Z,66.40
2022-10-23T23:21:19.507Z,65.77
2022-10-23T23:23:46.879Z,65.41
2022-10-23T23:26:14.778Z,64.83
2022-10-23T23:28:41.733Z,65.15
2022-10-23T23:31:16.666Z,65.29
2022-10-23T23:33:43.775Z,65.09
2022-10-23T23:36:13.459Z,70.19
2022-10-23T23:38:40.303Z,74.21
2022-10-23T23:41:10.878Z,76.36
2022-10-23T23:43:37.447Z,75.46
2022-10-23T23:46:04.177Z,75.25
2022-10-23T23:48:30.794Z,76.30
2022-10-23T23:50:57.415Z,75.68
2022-10-23T23:53:24.199Z,76.55
2022-10-23T23:55:50.867Z,78.28
2022-10-23T23:58:17.469Z,76.94
